Time;durP1;ratioP1;P1;durP2;ratioP2;P2;SDS_P1;SDS_P2;PMS_P1;PMS_P2;Temp;Humidity;BMP_temperature;BMP_pressure;BME280_temperature;BME280_humidity;BME280_pressure;Samples;Min_cycle;Max_cycle;Signal;HPM_P1;HPM_P2
2022/10/27 00:02:21;;;;;;;5.07;2.97;;;13.00;99.90;;;;;;5015871;28;20049;-72
2022/10/27 00:04:47;;;;;;;6.28;3.10;;;13.10;99.90;;;;;;5021184;28;20033;-72
2022/10/27 00:07:13;;;;;;;6.20;3.80;;;13.10;99.90;;;;;;5018506;28;20820;-72
2022/10/27 00:09:39;;;;;;;7.78;3.67;;;13.20;99.90;;;;;;5002698;28;20613;-73
2022/10/27 00:12:06;;;;;;;4.13;2.85;;;13.30;99.90;;;;;;5015117;28;20045;-72
2022/10/27 00:14:32;;;;;;;4.35;3.00;;;13.30;99.90;;;;;;5016933;28;20068;-72
2022/10/27 00:16:58;;;;;;;5.70;4.25;;;13.30;99.90;;;;;;5017850;28;20034;-72
2022/10/27 00:19:25;;;;;;;7.28;4.68;;;13.30;99.90;;;;;;5018491;28;20025;-72
2022/10/27 00:21:51;;;;;;;7.93;4.43;;;13.30;99.90;;;;;;5000228;28;20143;-71
2022/10/27 00:24:19;;;;;;;4.28;3.00;;;13.30;99.90;;;;;;5021227;28;20049;-76
2022/10/27 00:26:45;;;;;;;3.97;2.42;;;13.20;99.90;;;;;;5006206;28;20049;-74
2022/10/27 00:29:12;;;;;;;4.55;2.80;;;13.20;99.90;;;;;;5017584;28;20048;-75
2022/10/27 00:31:39;;;;;;;11.05;7.15;;;13.10;99.90;;;;;;5014146;28;20033;-74
2022/10/27 00:34:05;;;;;;;9.43;6.30;;;13.10;99.90;;;;;;5019740;28;20060;-75
2022/10/27 00:36:31;;;;;;;11.98;6.03;;;13.00;99.90;;;;;;5020720;28;20038;-74
2022/10/27 00:38:58;;;;;;;6.95;4.97;;;13.10;99.90;;;;;;4987259;28;20033;-74
2022/10/27 00:41:26;;;;;;;7.40;4.88;;;13.10;99.90;;;;;;5015375;28;20030;-74
2022/10/27 00:43:54;;;;;;;7.85;4.32;;;13.00;99.90;;;;;;5020289;28;20383;-73
2022/10/27 00:46:25;;;;;;;7.80;4.65;;;13.00;99.90;;;;;;5019713;28;20039;-71
2022/10/27 00:49:00;;;;;;;7.15;5.78;;;12.90;99.90;;;;;;5020655;28;20033;-72
2022/10/27 00:51:26;;;;;;;6.47;3.78;;;12.90;99.90;;;;;;5015390;28;20036;-73
2022/10/27 00:53:54;;;;;;;3.83;3.10;;;12.80;99.90;;;;;;5020230;28;20365;-73
2022/10/27 00:56:22;;;;;;;4.75;3.60;;;12.80;99.90;;;;;;5019407;28;20037;-74
2022/10/27 00:58:49;;;;;;;5.93;3.38;;;12.80;99.90;;;;;;5003277;28;20516;-73
2022/10/27 01:01:15;;;;;;;4.82;2.85;;;12.70;99.90;;;;;;4999180;28;20034;-74
2022/10/27 01:03:43;;;;;;;3.45;2.45;;;12.70;99.90;;;;;;5024699;28;20041;-74
2022/10/27 01:06:11;;;;;;;4.70;2.53;;;12.70;99.90;;;;;;5007671;28;20488;-73
2022/10/27 01:08:38;;;;;;;5.05;2.72;;;12.70;99.90;;;;;;5023031;28;20038;-73
2022/10/27 01:11:05;;;;;;;4.00;2.45;;;12.70;99.90;;;;;;5016016;28;20048;-74
2022/10/27 01:13:31;;;;;;;4.18;2.80;;;12.70;99.90;;;;;;5006829;28;20483;-73
2022/10/27 01:16:00;;;;;;;6.68;3.03;;;12.70;99.90;;;;;;5023761;28;20049;-76
2022/10/27 01:19:00;;;;;;;6.55;4.38;;;12.70;99.90;;;;;;5030572;28;20053;-75
2022/10/27 01:21:55;;;;;;;5.97;3.20;;;12.70;99.90;;;;;;5023848;28;20025;-74
2022/10/27 01:24:31;;;;;;;5.07;3.17;;;12.60;99.90;;;;;;5025680;28;20045;-74
2022/10/27 01:27:18;;;;;;;5.97;2.80;;;12.60;99.90;;;;;;5026107;28;20152;-73
2022/10/27 01:30:04;;;;;;;2.80;2.00;;;12.60;99.90;;;;;;5030957;28;20480;-74
2022/10/27 01:32:39;;;;;;;3.17;2.15;;;12.50;99.90;;;;;;5029374;28;20040;-74
2022/10/27 01:35:30;;;;;;;7.07;2.67;;;12.50;99.90;;;;;;5010739;28;20045;-74
2022/10/27 01:38:09;;;;;;;5.80;2.33;;;12.50;99.90;;;;;;5026326;28;20480;-74
2022/10/27 01:40:58;;;;;;;5.07;2.70;;;12.50;99.90;;;;;;5020359;28;20033;-74
2022/10/27 01:43:27;;;;;;;4.90;2.90;;;12.50;99.90;;;;;;5027205;28;20041;-74
2022/10/27 01:45:54;;;;;;;5.80;3.35;;;12.50;99.90;;;;;;5011056;28;20040;-73
2022/10/27 01:48:21;;;;;;;4.30;2.60;;;12.50;99.90;;;;;;5024903;28;20041;-74
2022/10/27 01:50:48;;;;;;;7.72;2.75;;;12.50;99.90;;;;;;5019517;28;20048;-74
2022/10/27 01:53:14;;;;;;;4.57;1.88;;;12.50;99.90;;;;;;5027730;28;20041;-74
2022/10/27 01:55:43;;;;;;;3.88;2.53;;;12.50;99.90;;;;;;5026507;28;20068;-73
2022/10/27 01:58:09;;;;;;;4.53;2.65;;;12.50;99.90;;;;;;5024143;28;20046;-74
2022/10/27 02:01:05;;;;;;;5.00;2.28;;;12.50;99.90;;;;;;5005110;28;20045;-74
2022/10/27 02:03:54;;;;;;;3.30;2.43;;;12.50;99.90;;;;;;5025302;28;20365;-73
2022/10/27 02:06:48;;;;;;;5.50;2.25;;;12.50;99.90;;;;;;4993597;28;20288;-74
2022/10/27 02:09:36;;;;;;;6.57;2.22;;;12.60;99.90;;;;;;5024204;28;20052;-73
2022/10/27 02:12:09;;;;;;;4.85;2.28;;;12.60;99.90;;;;;;5021260;28;20033;-74
2022/10/27 02:14:37;;;;;;;4.25;2.38;;;12.60;99.90;;;;;;5007482;28;20052;-74
2022/10/27 02:17:05;;;;;;;3.72;2.50;;;12.60;99.90;;;;;;5024175;28;20052;-73
2022/10/27 02:19:35;;;;;;;3.70;2.28;;;12.60;99.90;;;;;;5007148;28;20045;-73
2022/10/27 02:22:03;;;;;;;2.90;1.75;;;12.60;99.90;;;;;;5021699;28;20674;-74
2022/10/27 02:24:30;;;;;;;3.38;1.80;;;12.70;99.90;;;;;;5026778;28;20041;-73
2022/10/27 02:27:27;;;;;;;5.18;2.30;;;12.70;99.90;;;;;;5026764;28;20045;-74
2022/10/27 02:29:57;;;;;;;2.97;1.73;;;12.70;99.90;;;;;;5020643;28;20033;-72
2022/10/27 02:32:24;;;;;;;3.65;1.88;;;12.80;99.90;;;;;;5022165;28;20037;-72
2022/10/27 02:34:51;;;;;;;3.22;1.83;;;12.80;99.90;;;;;;5026868;28;20050;-73
2022/10/27 02:37:20;;;;;;;3.63;1.67;;;12.80;99.90;;;;;;5024214;28;20037;-75
2022/10/27 02:39:46;;;;;;;2.80;1.75;;;12.80;99.90;;;;;;5020786;28;20614;-73
2022/10/27 02:42:13;;;;;;;3.95;2.00;;;12.80;99.90;;;;;;5018703;28;20041;-74
2022/10/27 02:44:39;;;;;;;4.10;2.15;;;12.80;99.90;;;;;;5023848;28;20045;-75
2022/10/27 02:47:05;;;;;;;3.30;2.38;;;12.80;99.90;;;;;;5024887;28;20427;-75
2022/10/27 02:49:32;;;;;;;3.33;2.08;;;12.80;99.90;;;;;;5021274;28;20040;-73
2022/10/27 02:51:58;;;;;;;3.38;1.95;;;12.80;99.90;;;;;;5020796;28;20024;-74
2022/10/27 02:54:24;;;;;;;3.50;2.15;;;12.80;99.90;;;;;;5007282;28;20049;-74
2022/10/27 02:56:51;;;;;;;3.28;1.67;;;12.70;99.90;;;;;;5022605;28;20037;-74
2022/10/27 02:59:17;;;;;;;4.55;1.75;;;12.70;99.90;;;;;;5022565;28;20033;-75
2022/10/27 03:01:43;;;;;;;2.40;1.55;;;12.70;99.90;;;;;;5018586;28;20034;-75
2022/10/27 03:04:09;;;;;;;2.80;1.95;;;12.70;99.90;;;;;;5022229;28;20049;-74
2022/10/27 03:06:35;;;;;;;5.50;1.98;;;12.70;99.90;;;;;;4989839;28;20385;-75
2022/10/27 03:09:02;;;;;;;2.97;2.20;;;12.70;99.90;;;;;;5021830;28;20044;-73
2022/10/27 03:11:28;;;;;;;2.65;1.60;;;12.70;99.90;;;;;;5000740;28;20403;-74
2022/10/27 03:13:54;;;;;;;3.65;2.45;;;12.70;99.90;;;;;;5023866;28;20050;-74
2022/10/27 03:16:20;;;;;;;4.53;1.92;;;12.70;99.90;;;;;;5024678;28;20033;-74
2022/10/27 03:18:47;;;;;;;3.42;2.42;;;12.70;99.90;;;;;;5023414;28;20151;-75
2022/10/27 03:21:14;;;;;;;6.38;2.83;;;12.70;99.90;;;;;;5017276;28;20711;-72
2022/10/27 03:23:40;;;;;;;6.53;2.83;;;12.70;99.90;;;;;;5023496;28;20056;-73
2022/10/27 03:26:06;;;;;;;5.45;2.38;;;12.70;99.90;;;;;;5022727;28;20033;-74
2022/10/27 03:28:36;;;;;;;2.70;1.95;;;12.60;99.90;;;;;;5022885;28;20045;-73
2022/10/27 03:31:04;;;;;;;3.50;2.00;;;12.60;99.90;;;;;;5017013;28;20037;-71
2022/10/27 03:33:30;;;;;;;3.67;2.35;;;12.50;99.90;;;;;;5023716;28;20401;-73
2022/10/27 03:35:57;;;;;;;3.22;1.70;;;12.50;99.90;;;;;;4990974;28;20408;-73
2022/10/27 03:38:24;;;;;;;9.45;3.85;;;12.50;99.90;;;;;;5023614;28;20500;-72
2022/10/27 03:40:50;;;;;;;4.25;2.70;;;12.50;99.90;;;;;;5018763;28;20044;-72
2022/10/27 03:43:17;;;;;;;3.58;3.05;;;12.50;99.90;;;;;;5022817;28;20045;-72
2022/10/27 03:45:47;;;;;;;5.07;2.50;;;12.50;99.90;;;;;;5022120;28;20048;-73
2022/10/27 03:48:13;;;;;;;6.38;2.67;;;12.50;99.90;;;;;;5021333;28;20052;-73
2022/10/27 03:50:45;;;;;;;4.47;2.90;;;12.50;99.90;;;;;;5018154;28;20037;-74
2022/10/27 03:53:11;;;;;;;3.75;2.78;;;12.50;99.90;;;;;;5024951;28;20496;-73
2022/10/27 03:55:37;;;;;;;6.38;3.28;;;12.50;99.90;;;;;;5026459;28;20041;-73
2022/10/27 03:58:04;;;;;;;4.20;2.83;;;12.50;99.90;;;;;;5022613;28;20033;-73
2022/10/27 04:00:31;;;;;;;6.18;2.67;;;12.50;99.90;;;;;;5000178;28;20037;-72
2022/10/27 04:02:58;;;;;;;5.60;2.58;;;12.50;99.90;;;;;;5022268;28;20042;-73
2022/10/27 04:05:24;;;;;;;4.20;2.83;;;12.50;99.90;;;;;;4996380;28;20033;-72
2022/10/27 04:07:51;;;;;;;5.47;2.88;;;12.50;99.90;;;;;;5023002;28;20033;-73
2022/10/27 04:10:17;;;;;;;3.47;2.53;;;12.40;99.90;;;;;;5017166;28;20048;-74
2022/10/27 04:12:47;;;;;;;4.40;2.78;;;12.40;99.90;;;;;;5022847;28;20516;-73
2022/10/27 04:15:14;;;;;;;5.05;2.58;;;12.40;99.90;;;;;;5022377;28;20456;-73
2022/10/27 04:17:40;;;;;;;4.65;2.97;;;12.40;99.90;;;;;;5023289;28;20080;-73
2022/10/27 04:20:07;;;;;;;3.35;1.77;;;12.40;99.90;;;;;;5021121;28;20045;-73
2022/10/27 04:22:33;;;;;;;3.78;2.65;;;12.40;99.90;;;;;;5004343;28;20835;-73
2022/10/27 04:24:59;;;;;;;3.50;2.35;;;12.40;99.90;;;;;;5025362;28;20029;-73
2022/10/27 04:27:25;;;;;;;3.72;3.05;;;12.40;99.90;;;;;;5023902;28;20428;-73
2022/10/27 04:29:52;;;;;;;3.65;2.25;;;12.40;99.90;;;;;;5005510;28;20456;-72
2022/10/27 04:32:18;;;;;;;3.70;2.58;;;12.40;99.90;;;;;;5022449;28;20038;-74
2022/10/27 04:34:44;;;;;;;4.03;2.25;;;12.40;99.90;;;;;;5023973;28;20413;-73
2022/10/27 04:37:11;;;;;;;5.50;3.15;;;12.30;99.90;;;;;;5026092;28;20048;-74
2022/10/27 04:39:37;;;;;;;7.07;3.40;;;12.30;99.90;;;;;;5026534;28;20029;-74
2022/10/27 04:42:04;;;;;;;5.00;3.70;;;12.30;99.90;;;;;;5022215;28;20495;-74
2022/10/27 04:44:30;;;;;;;4.78;2.65;;;12.20;99.90;;;;;;5027596;28;20033;-74
2022/10/27 04:46:56;;;;;;;4.78;2.33;;;12.20;99.90;;;;;;5027098;28;20495;-75
2022/10/27 04:49:22;;;;;;;4.55;2.75;;;12.20;99.90;;;;;;5025275;28;20042;-74
2022/10/27 04:51:48;;;;;;;4.35;1.92;;;12.10;99.90;;;;;;5028382;28;20037;-74
2022/10/27 04:54:15;;;;;;;4.53;2.75;;;12.10;99.90;;;;;;5026832;28;20492;-74
2022/10/27 04:56:41;;;;;;;3.15;2.60;;;12.10;99.90;;;;;;5026432;28;20033;-73
2022/10/27 04:59:07;;;;;;;3.67;2.28;;;12.10;99.90;;;;;;5027489;28;20167;-73
2022/10/27 05:01:34;;;;;;;4.10;2.97;;;12.10;99.90;;;;;;5024282;28;20416;-73
2022/10/27 05:04:00;;;;;;;4.72;2.25;;;12.00;99.90;;;;;;5030177;28;20049;-73
2022/10/27 05:06:26;;;;;;;5.32;2.92;;;12.00;99.90;;;;;;5029450;28;20034;-73
2022/10/27 05:08:52;;;;;;;4.30;2.70;;;12.00;99.90;;;;;;5024550;28;20041;-72
2022/10/27 05:11:18;;;;;;;4.60;3.10;;;12.00;99.90;;;;;;5022951;28;20999;-75
2022/10/27 05:13:49;;;;;;;6.57;2.97;;;12.00;99.90;;;;;;5027415;28;20034;-74
2022/10/27 05:16:16;;;;;;;3.50;1.92;;;12.00;99.90;;;;;;5026404;28;20064;-74
2022/10/27 05:18:43;;;;;;;4.13;2.70;;;12.00;99.90;;;;;;5027883;28;20370;-73
2022/10/27 05:21:09;;;;;;;6.13;3.00;;;12.00;99.90;;;;;;5020495;28;20032;-73
2022/10/27 05:23:35;;;;;;;5.38;2.35;;;12.00;99.90;;;;;;5026423;28;20045;-74
2022/10/27 05:26:02;;;;;;;2.88;2.03;;;12.00;99.90;;;;;;5026744;28;20060;-72
2022/10/27 05:28:28;;;;;;;4.90;2.58;;;12.00;99.90;;;;;;5025377;28;20045;-71
2022/10/27 05:30:58;;;;;;;5.70;2.40;;;12.00;99.90;;;;;;5021062;28;20037;-74
2022/10/27 05:33:26;;;;;;;6.10;2.88;;;11.90;99.90;;;;;;5026406;28;20060;-72
2022/10/27 05:35:52;;;;;;;4.88;2.50;;;11.90;99.90;;;;;;5027933;28;20049;-72
2022/10/27 05:38:19;;;;;;;4.45;2.67;;;11.90;99.90;;;;;;5009419;28;20048;-74
2022/10/27 05:40:45;;;;;;;6.47;2.85;;;11.90;99.90;;;;;;5019039;28;20041;-73
2022/10/27 05:43:11;;;;;;;3.50;2.65;;;11.80;99.90;;;;;;5024174;28;20044;-74
2022/10/27 05:45:37;;;;;;;4.13;2.88;;;11.80;99.90;;;;;;5009445;28;20052;-73
2022/10/27 05:48:06;;;;;;;4.78;2.75;;;11.80;99.90;;;;;;5027301;28;20034;-72
2022/10/27 05:50:33;;;;;;;7.32;2.70;;;11.80;99.90;;;;;;5019223;28;20473;-73
2022/10/27 05:53:00;;;;;;;5.57;3.63;;;11.80;99.90;;;;;;5025663;28;20404;-73
2022/10/27 05:55:26;;;;;;;6.15;4.15;;;11.90;99.90;;;;;;5026872;28;20045;-73
2022/10/27 05:57:59;;;;;;;10.52;3.97;;;11.90;99.90;;;;;;5024567;28;20045;-73
2022/10/27 06:00:31;;;;;;;3.92;2.97;;;11.80;99.90;;;;;;5020092;28;20508;-74
2022/10/27 06:02:58;;;;;;;5.18;3.67;;;11.80;99.90;;;;;;5023293;28;20041;-74
2022/10/27 06:05:27;;;;;;;4.68;3.65;;;11.80;99.90;;;;;;5025886;28;20045;-72
2022/10/27 06:07:53;;;;;;;5.72;3.58;;;11.80;99.90;;;;;;5009772;28;20404;-73
2022/10/27 06:10:20;;;;;;;3.95;3.35;;;11.80;99.90;;;;;;5020318;28;20034;-74
2022/10/27 06:12:46;;;;;;;11.02;5.50;;;11.80;99.90;;;;;;5024313;28;20041;-72
2022/10/27 06:15:13;;;;;;;4.63;2.90;;;11.70;99.90;;;;;;5009493;28;20058;-73
2022/10/27 06:17:39;;;;;;;5.78;3.47;;;11.70;99.90;;;;;;5022032;28;20060;-74
2022/10/27 06:20:06;;;;;;;7.47;3.72;;;11.70;99.90;;;;;;5019630;28;20048;-74
2022/10/27 06:22:32;;;;;;;5.22;3.53;;;11.70;99.90;;;;;;5024644;28;20033;-75
2022/10/27 06:24:58;;;;;;;6.65;3.30;;;11.80;99.90;;;;;;5025366;28;20029;-73
2022/10/27 06:27:24;;;;;;;5.78;3.25;;;11.70;99.90;;;;;;5024205;28;20042;-74
2022/10/27 06:29:51;;;;;;;6.03;4.22;;;11.80;99.90;;;;;;5020635;28;20041;-71
2022/10/27 06:32:17;;;;;;;7.15;4.13;;;11.80;99.90;;;;;;5022967;28;20472;-74
2022/10/27 06:34:43;;;;;;;5.38;3.65;;;11.80;99.90;;;;;;5023365;28;20052;-74
2022/10/27 06:37:09;;;;;;;4.65;3.17;;;11.80;99.90;;;;;;4991385;28;20045;-73
2022/10/27 06:39:36;;;;;;;9.13;4.70;;;11.90;99.90;;;;;;5022557;28;20250;-72
2022/10/27 06:42:02;;;;;;;9.10;4.95;;;11.90;99.90;;;;;;5005657;28;20494;-72
2022/10/27 06:44:28;;;;;;;11.00;4.95;;;11.90;99.90;;;;;;5023518;28;20033;-72
2022/10/27 06:46:54;;;;;;;7.57;4.65;;;11.90;99.90;;;;;;5023796;28;20048;-72
2022/10/27 06:49:20;;;;;;;6.38;4.07;;;11.90;99.90;;;;;;5022208;28;20053;-73
2022/10/27 06:51:47;;;;;;;5.88;4.10;;;12.00;99.90;;;;;;5019886;28;20029;-73
2022/10/27 06:54:13;;;;;;;4.93;3.78;;;12.00;99.90;;;;;;5021143;28;20735;-73
2022/10/27 06:56:39;;;;;;;4.85;3.35;;;12.00;99.90;;;;;;5022693;28;20040;-73
2022/10/27 06:59:05;;;;;;;5.35;3.95;;;12.10;99.90;;;;;;5020856;28;20033;-72
2022/10/27 07:01:32;;;;;;;6.13;3.53;;;12.10;99.90;;;;;;4999706;28;20376;-72
2022/10/27 07:03:58;;;;;;;4.63;3.65;;;12.10;99.90;;;;;;5022850;28;20025;-72
2022/10/27 07:06:24;;;;;;;5.15;3.22;;;12.10;99.90;;;;;;5008126;28;20045;-72
2022/10/27 07:08:51;;;;;;;4.55;3.40;;;12.20;99.90;;;;;;5022006;28;20052;-73
2022/10/27 07:11:18;;;;;;;7.80;3.90;;;12.20;99.90;;;;;;5019505;28;20033;-72
2022/10/27 07:13:44;;;;;;;5.03;2.60;;;12.20;99.90;;;;;;5026748;28;20036;-73
2022/10/27 07:16:11;;;;;;;3.60;2.25;;;12.30;99.90;;;;;;5022844;28;20045;-73
2022/10/27 07:18:37;;;;;;;4.22;2.58;;;12.40;99.90;;;;;;5025840;28;20053;-73
2022/10/27 07:21:04;;;;;;;5.07;2.78;;;12.40;99.90;;;;;;5016827;28;20029;-72
2022/10/27 07:23:31;;;;;;;8.05;3.72;;;12.50;99.90;;;;;;5010187;28;20033;-71
2022/10/27 07:25:57;;;;;;;8.98;3.67;;;12.60;99.90;;;;;;5025884;28;20488;-74
2022/10/27 07:28:23;;;;;;;7.25;3.70;;;12.60;99.90;;;;;;5022167;28;20037;-72
2022/10/27 07:30:53;;;;;;;5.45;3.17;;;12.70;99.90;;;;;;5003271;28;20459;-74
2022/10/27 07:33:20;;;;;;;5.50;3.58;;;12.70;99.90;;;;;;5007686;28;20084;-74
2022/10/27 07:35:48;;;;;;;5.80;3.05;;;12.80;99.90;;;;;;5026809;28;20041;-74
2022/10/27 07:38:15;;;;;;;4.65;2.47;;;12.80;99.90;;;;;;5008643;28;20045;-73
2022/10/27 07:40:41;;;;;;;6.20;3.25;;;12.90;99.90;;;;;;5018253;28;20030;-74
2022/10/27 07:43:08;;;;;;;8.73;4.00;;;12.90;99.90;;;;;;5020800;28;20034;-74
2022/10/27 07:45:37;;;;;;;7.57;4.20;;;13.00;99.90;;;;;;5023267;28;20033;-73
2022/10/27 07:48:04;;;;;;;5.97;3.97;;;13.00;99.90;;;;;;5024905;28;20400;-73
2022/10/27 07:50:32;;;;;;;7.35;4.20;;;13.10;99.90;;;;;;5017505;28;20033;-73
2022/10/27 07:52:59;;;;;;;7.07;4.60;;;13.20;99.90;;;;;;5021760;28;20041;-73
2022/10/27 07:55:28;;;;;;;6.43;3.28;;;13.20;99.90;;;;;;5023571;28;20053;-74
2022/10/27 07:58:04;;;;;;;5.00;3.38;;;13.30;99.90;;;;;;5007093;28;20065;-74
2022/10/27 08:00:33;;;;;;;5.93;3.15;;;13.40;99.90;;;;;;5017952;28;20488;-74
2022/10/27 08:03:04;;;;;;;5.57;3.28;;;13.40;99.90;;;;;;5003144;28;20397;-73
2022/10/27 08:05:35;;;;;;;5.38;3.50;;;13.50;99.90;;;;;;5023648;28;20413;-74
2022/10/27 08:08:03;;;;;;;4.82;2.80;;;13.60;99.90;;;;;;5023685;28;20503;-74
2022/10/27 08:10:31;;;;;;;9.38;4.22;;;13.60;99.90;;;;;;5016125;28;20038;-73
2022/10/27 08:12:58;;;;;;;5.22;3.45;;;13.60;99.90;;;;;;5024226;28;20029;-74
2022/10/27 08:15:24;;;;;;;6.88;3.33;;;13.60;99.90;;;;;;5027176;28;20076;-74
2022/10/27 08:17:52;;;;;;;6.05;3.50;;;13.70;99.90;;;;;;5026065;28;20046;-74
2022/10/27 08:20:18;;;;;;;5.75;3.83;;;13.60;99.90;;;;;;5022338;28;20045;-74
2022/10/27 08:22:45;;;;;;;5.38;2.90;;;13.70;99.90;;;;;;5008400;28;20417;-75
2022/10/27 08:25:12;;;;;;;5.45;3.50;;;13.80;99.90;;;;;;5027060;28;20042;-74
2022/10/27 08:27:38;;;;;;;6.57;3.70;;;13.90;99.90;;;;;;5028367;28;20033;-75
2022/10/27 08:30:05;;;;;;;5.68;2.33;;;14.00;99.90;;;;;;5020671;28;20038;-74
2022/10/27 08:32:31;;;;;;;3.78;2.55;;;14.10;99.90;;;;;;5028151;28;20040;-75
2022/10/27 08:34:57;;;;;;;4.85;3.00;;;14.20;99.90;;;;;;5026357;28;20369;-75
2022/10/27 08:37:24;;;;;;;4.45;2.85;;;14.30;99.90;;;;;;5009901;28;20416;-75
2022/10/27 08:39:50;;;;;;;4.07;2.60;;;14.50;99.90;;;;;;5023366;28;20685;-72
2022/10/27 08:42:41;;;;;;;2.70;1.80;;;14.60;99.90;;;;;;5022357;28;20269;-75
2022/10/27 08:45:14;;;;;;;2.92;2.03;;;14.80;99.90;;;;;;5025640;28;20049;-74
2022/10/27 08:47:42;;;;;;;5.03;2.63;;;14.90;99.90;;;;;;5008463;28;20057;-72
2022/10/27 08:50:13;;;;;;;4.80;2.42;;;14.90;99.90;;;;;;5019925;28;20033;-74
2022/10/27 08:52:48;;;;;;;5.38;2.63;;;15.00;99.90;;;;;;5024685;28;20030;-76
2022/10/27 08:55:14;;;;;;;5.13;2.42;;;15.00;99.90;;;;;;5023411;28;20045;-75
2022/10/27 08:57:47;;;;;;;4.90;2.22;;;15.10;99.90;;;;;;5007809;28;20037;-76
2022/10/27 09:00:13;;;;;;;3.47;2.20;;;15.10;99.90;;;;;;5019885;28;20472;-74
2022/10/27 09:02:55;;;;;;;4.63;2.13;;;15.20;99.90;;;;;;5024245;28;20034;-74
2022/10/27 09:05:38;;;;;;;5.70;1.42;;;15.30;99.90;;;;;;5022921;28;20037;-75
2022/10/27 09:08:38;;;;;;;5.40;2.90;;;15.40;99.90;;;;;;5022981;28;20033;-74
2022/10/27 09:11:29;;;;;;;3.85;1.70;;;15.50;99.90;;;;;;5016402;28;20052;-75
2022/10/27 09:13:58;;;;;;;5.25;2.53;;;15.60;99.90;;;;;;5021321;28;20041;-74
2022/10/27 09:16:49;;;;;;;3.60;1.77;;;15.80;99.90;;;;;;5021717;28;20053;-73
2022/10/27 09:19:23;;;;;;;4.40;1.73;;;15.90;99.90;;;;;;5021674;28;20281;-75
2022/10/27 09:21:50;;;;;;;5.07;3.17;;;15.90;99.90;;;;;;5015327;28;20045;-73
2022/10/27 09:24:20;;;;;;;5.22;2.60;;;16.00;99.90;;;;;;5019413;28;20037;-74
2022/10/27 09:26:47;;;;;;;6.03;2.03;;;16.10;99.90;;;;;;5021701;28;20469;-75
2022/10/27 09:29:17;;;;;;;5.35;2.08;;;16.10;99.90;;;;;;5005268;28;20034;-73
2022/10/27 09:31:54;;;;;;;4.70;2.13;;;16.30;99.90;;;;;;5017025;28;20377;-74
2022/10/27 09:34:47;;;;;;;5.43;1.75;;;16.40;99.90;;;;;;5020676;28;20041;-74
2022/10/27 09:37:15;;;;;;;4.65;1.50;;;16.60;99.90;;;;;;5005364;28;20064;-73
2022/10/27 09:39:46;;;;;;;3.13;1.52;;;16.70;99.90;;;;;;5010743;28;20519;-73
2022/10/27 09:42:12;;;;;;;7.65;1.63;;;16.90;99.90;;;;;;5020274;28;20493;-74
2022/10/27 09:44:39;;;;;;;3.28;1.33;;;17.10;99.90;;;;;;5021258;28;20033;-73
2022/10/27 09:47:05;;;;;;;2.00;1.13;;;17.30;99.90;;;;;;5024528;28;20044;-73
2022/10/27 09:49:38;;;;;;;3.10;1.02;;;17.50;99.90;;;;;;5019608;28;20038;-73
2022/10/27 09:52:14;;;;;;;;;;;17.70;99.90;;;;;;5018671;28;20055;-72
2022/10/27 09:54:53;;;;;;;2.85;0.93;;;18.00;99.90;;;;;;5020357;28;19909;-71
2022/10/27 09:57:22;;;;;;;3.75;3.08;;;18.30;99.90;;;;;;5021607;28;20041;-72
2022/10/27 10:00:06;;;;;;;5.07;1.83;;;18.60;99.90;;;;;;5003683;28;20041;-73
2022/10/27 10:02:42;;;;;;;3.63;1.42;;;18.70;99.90;;;;;;5020752;28;20440;-73
2022/10/27 10:05:24;;;;;;;2.72;1.08;;;18.90;99.90;;;;;;5005128;28;20041;-72
2022/10/27 10:07:50;;;;;;;2.75;0.90;;;18.90;99.90;;;;;;5020890;28;20041;-72
2022/10/27 10:10:29;;;;;;;3.38;0.75;;;19.00;99.90;;;;;;5016594;28;20041;-72
2022/10/27 10:13:02;;;;;;;10.98;6.30;;;19.20;99.90;;;;;;5037852;28;20036;-72
2022/10/27 10:15:28;;;;;;;;;;;19.30;99.90;;;;;;5006480;28;20072;-72
2022/10/27 10:18:00;;;;;;;4.70;2.10;;;19.30;99.90;;;;;;5023209;28;21081;-73
2022/10/27 10:20:32;;;;;;;3.70;1.30;;;19.30;99.90;;;;;;5016392;28;20045;-72
2022/10/27 10:23:00;;;;;;;3.20;0.95;;;19.40;99.90;;;;;;5021241;28;20038;-71
2022/10/27 10:25:29;;;;;;;5.57;1.38;;;19.50;99.90;;;;;;5021961;28;20052;-71
2022/10/27 10:27:59;;;;;;;4.53;2.28;;;19.90;99.90;;;;;;5021272;28;20404;-72
2022/10/27 10:30:26;;;;;;;3.47;1.13;;;20.30;99.90;;;;;;5017170;28;20042;-72
2022/10/27 10:32:55;;;;;;;5.57;1.30;;;20.80;99.90;;;;;;5021248;28;20037;-73
2022/10/27 10:35:45;;;;;;;3.17;0.70;;;21.30;99.90;;;;;;5014943;28;20312;-73
2022/10/27 10:38:25;;;;;;;3.33;1.00;;;21.90;99.90;;;;;;5022978;28;20029;-72
2022/10/27 10:41:12;;;;;;;2.70;0.70;;;22.50;99.90;;;;;;5019263;28;20037;-73
2022/10/27 10:43:39;;;;;;;3.90;0.73;;;22.90;99.90;;;;;;5004474;28;20044;-72
2022/10/27 10:46:22;;;;;;;2.20;0.55;;;23.00;99.90;;;;;;5028487;28;20047;-73
2022/10/27 10:48:57;;;;;;;3.05;0.77;;;22.70;99.90;;;;;;4995416;28;20052;-73
2022/10/27 10:51:29;;;;;;;2.53;0.75;;;22.40;99.90;;;;;;5017776;28;20404;-72
2022/10/27 10:54:15;;;;;;;2.58;0.40;;;22.00;99.90;;;;;;5021282;28;20033;-73
2022/10/27 10:56:42;;;;;;;2.50;0.50;;;21.80;99.90;;;;;;5026383;28;20060;-72
2022/10/27 10:59:08;;;;;;;2.83;0.50;;;21.50;99.90;;;;;;5022846;28;20033;-73
2022/10/27 11:02:00;;;;;;;3.90;0.50;;;21.30;99.90;;;;;;5016643;28;20416;-73
2022/10/27 11:04:32;;;;;;;1.50;0.60;;;21.10;99.90;;;;;;5022323;28;20493;-73
2022/10/27 11:07:25;;;;;;;1.98;0.50;;;21.00;99.90;;;;;;5024052;28;20412;-73
2022/10/27 11:09:57;;;;;;;2.50;0.40;;;20.90;99.90;;;;;;5002702;28;20036;-72
2022/10/27 11:12:38;;;;;;;2.10;0.60;;;20.80;99.90;;;;;;5024195;28;20045;-74
2022/10/27 11:15:34;;;;;;;1.67;0.40;;;20.70;99.90;;;;;;5022626;28;20048;-72
2022/10/27 11:18:15;;;;;;;2.42;0.30;;;20.60;99.90;;;;;;5017054;28;20057;-72
2022/10/27 11:20:43;;;;;;;1.88;0.40;;;20.60;99.90;;;;;;5016789;28;20322;-72
2022/10/27 11:23:25;;;;;;;1.88;0.30;;;20.70;99.90;;;;;;5024105;28;20045;-73
2022/10/27 11:25:52;;;;;;;4.05;0.50;;;20.70;99.90;;;;;;5008507;28;20037;-73
2022/10/27 11:28:31;;;;;;;0.95;0.30;;;20.70;99.90;;;;;;5025656;28;20034;-72
2022/10/27 11:31:17;;;;;;;1.08;0.38;;;20.70;99.90;;;;;;5019433;28;20048;-72
2022/10/27 11:34:22;;;;;;;2.50;0.40;;;20.70;99.90;;;;;;5024351;28;20040;-73
2022/10/27 11:37:24;;;;;;;2.60;0.50;;;20.70;99.90;;;;;;5021510;28;20051;-72
2022/10/27 11:40:04;;;;;;;0.73;0.30;;;20.70;99.90;;;;;;4974970;28;20057;-73
2022/10/27 11:42:50;;;;;;;3.08;0.50;;;20.70;99.90;;;;;;5021779;28;20088;-73
2022/10/27 11:45:19;;;;;;;2.28;0.50;;;20.70;99.90;;;;;;5022202;28;20040;-73
2022/10/27 11:48:21;;;;;;;0.70;0.30;;;20.50;99.90;;;;;;5006574;28;20496;-74
2022/10/27 11:51:16;;;;;;;1.58;0.40;;;20.50;99.90;;;;;;5015937;28;20045;-72
2022/10/27 11:53:42;;;;;;;1.17;0.40;;;20.40;99.90;;;;;;5020604;28;20499;-73
2022/10/27 11:56:36;;;;;;;4.55;0.40;;;20.50;99.90;;;;;;5022881;28;20041;-73
2022/10/27 11:59:34;;;;;;;1.88;0.40;;;20.60;99.90;;;;;;5022851;28;20044;-72
2022/10/27 12:02:35;;;;;;;3.63;0.60;;;20.80;99.90;;;;;;5018847;28;20049;-72
2022/10/27 12:05:30;;;;;;;2.75;0.50;;;20.80;99.90;;;;;;5023009;28;20056;-72
2022/10/27 12:08:26;;;;;;;2.20;0.40;;;20.80;99.90;;;;;;5023263;28;20037;-74
2022/10/27 12:11:05;;;;;;;1.05;0.20;;;20.80;99.90;;;;;;5017569;28;20434;-72
2022/10/27 12:13:50;;;;;;;1.13;0.35;;;20.80;99.90;;;;;;5004933;28;20057;-72
2022/10/27 12:16:17;;;;;;;1.33;0.25;;;20.80;99.90;;;;;;5005233;28;20404;-73
2022/10/27 12:19:05;;;;;;;1.02;0.30;;;20.80;99.90;;;;;;5021582;28;20096;-73
2022/10/27 12:21:56;;;;;;;4.68;0.60;;;20.80;99.90;;;;;;5016811;28;20037;-72
2022/10/27 12:24:34;;;;;;;1.40;0.40;;;20.80;99.90;;;;;;5021902;28;20041;-72
2022/10/27 12:27:11;;;;;;;1.67;0.70;;;20.80;99.90;;;;;;5020283;28;20048;-72
2022/10/27 12:29:43;;;;;;;2.17;0.40;;;20.80;99.90;;;;;;5017845;28;20022;-74
2022/10/27 12:32:32;;;;;;;;;;;20.70;99.90;;;;;;5015044;28;20048;-73
2022/10/27 12:35:14;;;;;;;2.45;0.80;;;20.70;99.90;;;;;;5011280;28;20204;-72
2022/10/27 12:38:01;;;;;;;3.28;0.50;;;20.70;99.90;;;;;;5017781;28;20388;-73
2022/10/27 12:40:51;;;;;;;2.05;0.50;;;20.70;99.90;;;;;;5014037;28;20543;-73
2022/10/27 12:43:43;;;;;;;1.63;0.50;;;20.70;99.90;;;;;;5018620;28;20038;-73
2022/10/27 12:46:27;;;;;;;1.10;0.40;;;20.60;99.90;;;;;;5022676;28;20033;-73
2022/10/27 12:49:09;;;;;;;1.38;0.68;;;20.50;99.90;;;;;;5018404;28;20044;-73
2022/10/27 12:51:53;;;;;;;2.35;0.40;;;20.50;99.90;;;;;;5009530;28;20054;-73
2022/10/27 12:54:40;;;;;;;1.75;0.40;;;20.40;99.90;;;;;;5015486;28;20044;-73
2022/10/27 12:57:24;;;;;;;1.20;0.40;;;20.30;99.90;;;;;;5020269;28;20037;-73
2022/10/27 13:00:24;;;;;;;1.63;0.30;;;20.20;99.90;;;;;;5025449;28;20052;-72
2022/10/27 13:03:09;;;;;;;4.13;0.50;;;20.20;99.90;;;;;;5006602;28;20511;-73
2022/10/27 13:06:09;;;;;;;3.72;0.40;;;20.10;99.90;;;;;;5023477;28;20056;-73
2022/10/27 13:09:13;;;;;;;1.05;0.30;;;20.00;99.90;;;;;;5026249;28;20124;-74
2022/10/27 13:11:51;;;;;;;1.67;0.50;;;20.00;99.90;;;;;;5020349;28;20048;-73
2022/10/27 13:14:17;;;;;;;2.58;0.60;;;19.90;99.90;;;;;;5009910;28;20037;-72